Time;durP1;ratioP1;P1;durP2;ratioP2;P2;SDS_P1;SDS_P2;PMS_P1;PMS_P2;Temp;Humidity;BMP_temperature;BMP_pressure;BME280_temperature;BME280_humidity;BME280_pressure;Samples;Min_cycle;Max_cycle;Signal;HPM_P1;HPM_P2
2023/05/05 00:01:12;;;;;;;;;1.00;1.00;;;;;21.81;43.70;101575.73;110019;1260;21822;-41
2023/05/05 00:03:40;;;;;;;;;1.00;1.00;;;;;21.81;43.79;101575.56;109941;1266;18166;-41
2023/05/05 00:06:07;;;;;;;;;1.00;1.00;;;;;21.81;43.78;101578.33;109815;1266;20903;-42
2023/05/05 00:08:35;;;;;;;;;1.00;1.00;;;;;21.81;43.68;101575.42;109965;1254;20783;-41
2023/05/05 00:11:02;;;;;;;;;1.00;1.00;;;;;21.81;43.91;101572.29;110013;1253;19680;-41
2023/05/05 00:13:30;;;;;;;;;1.00;1.00;;;;;21.81;43.52;101573.73;110022;1266;20168;-41
2023/05/05 00:15:57;;;;;;;;;1.00;1.00;;;;;21.81;43.59;101567.38;109987;1267;19357;-42
2023/05/05 00:18:24;;;;;;;;;1.00;1.00;;;;;21.81;43.81;101572.98;110007;1254;19701;-41
2023/05/05 00:20:52;;;;;;;;;1.00;1.00;;;;;21.80;43.60;101564.77;110037;1254;20258;-40
2023/05/05 00:23:19;;;;;;;;;1.00;1.00;;;;;21.81;43.78;101566.66;109996;1266;20991;-41
2023/05/05 00:25:46;;;;;;;;;1.00;1.00;;;;;21.80;43.92;101564.34;109982;1251;19676;-42
2023/05/05 00:28:13;;;;;;;;;1.00;1.00;;;;;21.80;43.90;101559.20;110036;1251;20074;-41
2023/05/05 00:30:41;;;;;;;;;1.00;1.00;;;;;21.80;43.78;101560.08;110033;1266;21753;-42
2023/05/05 00:33:08;;;;;;;;;1.00;1.00;;;;;21.81;43.81;101571.19;110022;1254;19631;-41
2023/05/05 00:35:35;;;;;;;;;2.00;1.00;;;;;21.81;43.68;101576.30;109957;1260;19895;-41
2023/05/05 00:38:03;;;;;;;;;1.00;1.00;;;;;21.80;43.71;101581.45;110008;1266;20839;-41
2023/05/05 00:40:31;;;;;;;;;1.00;1.00;;;;;21.81;43.91;101574.27;110021;1266;18416;-41
2023/05/05 00:42:59;;;;;;;;;1.00;1.00;;;;;21.80;43.92;101568.39;110007;1259;19895;-41
2023/05/05 00:45:26;;;;;;;;;1.00;1.00;;;;;21.80;43.70;101576.07;109834;1251;109340;-41
2023/05/05 00:47:54;;;;;;;;;1.00;1.00;;;;;21.80;43.90;101576.20;109987;1251;20744;-41
2023/05/05 00:50:21;;;;;;;;;1.00;1.00;;;;;21.80;43.73;101579.30;110049;1266;18652;-41
2023/05/05 00:52:48;;;;;;;;;1.00;1.00;;;;;21.80;43.71;101578.09;110024;1254;20769;-41
2023/05/05 00:55:16;;;;;;;;;1.00;1.00;;;;;21.79;43.61;101577.65;110028;1266;18467;-41
2023/05/05 00:57:43;;;;;;;;;1.00;1.00;;;;;21.80;43.72;101580.77;110008;1260;19891;-41
2023/05/05 01:00:10;;;;;;;;;1.00;1.00;;;;;21.79;43.72;101576.86;110043;1254;20640;-41
2023/05/05 01:02:38;;;;;;;;;1.00;1.00;;;;;21.80;43.75;101570.28;110038;1254;19598;-42
2023/05/05 01:05:05;;;;;;;;;1.00;1.00;;;;;21.79;43.68;101568.67;110075;1252;18602;-41
2023/05/05 01:07:32;;;;;;;;;1.00;1.00;;;;;21.80;43.71;101563.73;110022;1254;22334;-41
2023/05/05 01:10:00;;;;;;;;;1.00;1.00;;;;;21.80;43.57;101564.24;110040;1254;19649;-40
2023/05/05 01:12:27;;;;;;;;;1.00;1.00;;;;;21.79;43.79;101565.84;110039;1260;21625;-40
2023/05/05 01:14:54;;;;;;;;;1.00;1.00;;;;;21.79;43.68;101569.77;110014;1252;20844;-40
2023/05/05 01:17:22;;;;;;;;;1.00;1.00;;;;;21.80;43.75;101570.34;110027;1254;19648;-41
2023/05/05 01:19:49;;;;;;;;;1.00;1.00;;;;;21.80;43.77;101564.77;110026;1266;18626;-42
2023/05/05 01:22:16;;;;;;;;;2.00;2.00;;;;;21.80;43.70;101566.63;110021;1266;19361;-40
2023/05/05 01:24:44;;;;;;;;;1.00;1.00;;;;;21.80;43.71;101565.16;110022;1260;19643;-39
2023/05/05 01:27:12;;;;;;;;;1.00;1.00;;;;;21.79;43.71;101569.55;110030;1254;19873;-43
2023/05/05 01:29:39;;;;;;;;;1.00;1.00;;;;;21.79;43.76;101568.70;110034;1260;21012;-40
2023/05/05 01:32:06;;;;;;;;;1.00;1.00;;;;;21.80;43.57;101571.33;110018;1260;19118;-41
2023/05/05 01:34:34;;;;;;;;;1.00;1.00;;;;;21.80;43.44;101578.02;110022;1260;20055;-47
2023/05/05 01:37:01;;;;;;;;;1.00;1.00;;;;;21.80;43.65;101572.84;110021;1267;19560;-39
2023/05/05 01:39:28;;;;;;;;;1.00;1.00;;;;;21.80;43.53;101571.70;110050;1254;19692;-39
2023/05/05 01:41:56;;;;;;;;;1.00;1.00;;;;;21.80;43.60;101567.27;110009;1254;20005;-41
2023/05/05 01:44:23;;;;;;;;;1.00;1.00;;;;;21.80;43.48;101561.88;110021;1251;19357;-40
2023/05/05 01:46:50;;;;;;;;;1.00;1.00;;;;;21.79;43.56;101558.64;109986;1253;19711;-40
2023/05/05 01:49:17;;;;;;;;;1.00;1.00;;;;;21.79;43.62;101560.72;110001;1260;19844;-40
2023/05/05 01:51:45;;;;;;;;;1.00;1.00;;;;;21.79;43.58;101560.55;110011;1254;20756;-41
2023/05/05 01:54:12;;;;;;;;;1.00;1.00;;;;;21.78;43.56;101562.39;110010;1266;19850;-40
2023/05/05 01:56:39;;;;;;;;;1.00;1.00;;;;;21.78;43.69;101565.19;109987;1266;18617;-40
2023/05/05 01:59:07;;;;;;;;;1.00;1.00;;;;;21.78;43.61;101562.05;110031;1251;20650;-42
2023/05/05 02:01:34;;;;;;;;;1.00;1.00;;;;;21.78;43.57;101563.22;110062;1254;19686;-40
2023/05/05 02:04:02;;;;;;;;;1.00;1.00;;;;;21.79;43.60;101562.90;110046;1266;18576;-40
2023/05/05 02:06:29;;;;;;;;;1.00;1.00;;;;;21.77;43.52;101564.34;110068;1254;20887;-40
2023/05/05 02:08:57;;;;;;;;;1.00;1.00;;;;;21.77;43.55;101559.62;110023;1266;18459;-42
2023/05/05 02:11:25;;;;;;;;;1.00;1.00;;;;;21.78;43.60;101561.79;110035;1251;20072;-41
2023/05/05 02:13:52;;;;;;;;;1.00;1.00;;;;;21.77;43.57;101563.24;110038;1254;20626;-41
2023/05/05 02:16:19;;;;;;;;;1.00;1.00;;;;;21.79;43.44;101566.93;110045;1260;19585;-40
2023/05/05 02:18:47;;;;;;;;;1.00;1.00;;;;;21.78;43.57;101567.14;110013;1260;19899;-41
2023/05/05 02:21:16;;;;;;;;;1.00;1.00;;;;;21.79;43.43;101568.02;110008;1260;20860;-44
2023/05/05 02:23:44;;;;;;;;;1.00;1.00;;;;;21.78;43.61;101568.05;109989;1253;19639;-41
2023/05/05 02:26:11;;;;;;;;;1.00;1.00;;;;;21.78;43.46;101568.39;109930;1260;19971;-40
2023/05/05 02:28:38;;;;;;;;;1.00;1.00;;;;;21.79;43.42;101568.70;109938;1251;19727;-39
2023/05/05 02:31:06;;;;;;;;;1.00;1.00;;;;;21.79;43.46;101569.63;110040;1254;19615;-39
2023/05/05 02:33:33;;;;;;;;;1.00;1.00;;;;;21.79;43.36;101569.63;110020;1254;20183;-40
2023/05/05 02:36:00;;;;;;;;;1.00;1.00;;;;;21.78;43.57;101570.74;110025;1260;21017;-42
2023/05/05 02:38:28;;;;;;;;;1.00;1.00;;;;;21.78;43.40;101572.77;110031;1266;18192;-41
2023/05/05 02:40:55;;;;;;;;;1.00;1.00;;;;;21.79;43.30;101569.92;110015;1266;18549;-41
2023/05/05 02:43:22;;;;;;;;;1.00;1.00;;;;;21.79;43.44;101570.27;110030;1266;19342;-41
2023/05/05 02:45:50;;;;;;;;;1.00;1.00;;;;;21.79;43.46;101569.59;109968;1266;22850;-41
2023/05/05 02:48:17;;;;;;;;;1.00;1.00;;;;;21.79;43.40;101572.93;109997;1266;18735;-41
2023/05/05 02:50:45;;;;;;;;;1.00;1.00;;;;;21.78;43.44;101576.38;110015;1253;22392;-41
2023/05/05 02:53:12;;;;;;;;;2.00;1.00;;;;;21.79;43.37;101569.83;109994;1254;19809;-41
2023/05/05 02:55:41;;;;;;;;;1.00;1.00;;;;;21.80;43.53;101573.34;110029;1266;18634;-40
2023/05/05 02:58:08;;;;;;;;;1.00;1.00;;;;;21.79;43.40;101573.00;110029;1254;20810;-39
2023/05/05 03:00:35;;;;;;;;;1.00;1.00;;;;;21.79;43.25;101571.02;110043;1254;19644;-39
2023/05/05 03:03:03;;;;;;;;;1.00;1.00;;;;;21.78;43.25;101570.59;110009;1254;20157;-40
2023/05/05 03:05:30;;;;;;;;;1.00;1.00;;;;;21.78;43.45;101573.89;110025;1261;20608;-42
2023/05/05 03:07:57;;;;;;;;;1.00;1.00;;;;;21.79;43.45;101577.10;110041;1254;19647;-40
2023/05/05 03:10:24;;;;;;;;;1.00;1.00;;;;;21.79;43.44;101582.05;110037;1254;20039;-41
2023/05/05 03:12:52;;;;;;;;;1.00;1.00;;;;;21.78;43.42;101585.52;110021;1266;19358;-40
2023/05/05 03:15:19;;;;;;;;;1.00;1.00;;;;;21.78;43.40;101583.51;110044;1266;22799;-40
2023/05/05 03:17:46;;;;;;;;;1.00;1.00;;;;;21.78;43.28;101587.36;110042;1266;18602;-41
2023/05/05 03:20:14;;;;;;;;;1.00;1.00;;;;;21.78;43.49;101589.03;110036;1266;19431;-41
2023/05/05 03:22:41;;;;;;;;;1.00;1.00;;;;;21.78;43.50;101591.25;110019;1254;20372;-41
2023/05/05 03:25:08;;;;;;;;;1.00;1.00;;;;;21.78;43.20;101593.55;109996;1251;19977;-41
2023/05/05 03:27:36;;;;;;;;;1.00;1.00;;;;;21.78;43.23;101589.41;110018;1254;20678;-42
2023/05/05 03:30:03;;;;;;;;;1.00;1.00;;;;;21.79;43.54;101595.45;110001;1250;19574;-41
2023/05/05 03:32:30;;;;;;;;;1.00;1.00;;;;;21.78;43.27;101596.61;110063;1251;18598;-41
2023/05/05 03:34:58;;;;;;;;;1.00;1.00;;;;;21.78;43.40;101595.89;110008;1254;20900;-40
2023/05/05 03:37:25;;;;;;;;;1.00;1.00;;;;;21.79;43.33;101594.94;110026;1260;19498;-41
2023/05/05 03:39:52;;;;;;;;;1.00;1.00;;;;;21.79;43.38;101599.64;110015;1266;18580;-40
2023/05/05 03:42:20;;;;;;;;;1.00;1.00;;;;;21.78;43.22;101594.29;110029;1266;19327;-41
2023/05/05 03:44:47;;;;;;;;;1.00;1.00;;;;;21.79;43.19;101600.23;109993;1266;22700;-41
2023/05/05 03:47:15;;;;;;;;;1.00;1.00;;;;;21.79;43.29;101604.32;109901;1266;18615;-40
2023/05/05 03:49:42;;;;;;;;;2.00;1.00;;;;;21.79;43.22;101602.55;109913;1254;20792;-40
2023/05/05 03:52:09;;;;;;;;;1.00;1.00;;;;;21.79;43.14;101599.77;110010;1260;19495;-40
2023/05/05 03:54:37;;;;;;;;;1.00;1.00;;;;;21.79;43.17;101604.90;110027;1254;22476;-42
2023/05/05 03:57:04;;;;;;;;;1.00;1.00;;;;;21.79;43.23;101602.75;110028;1251;20641;-44
2023/05/05 03:59:31;;;;;;;;;1.00;1.00;;;;;21.79;43.35;101606.40;110017;1266;21866;-42
2023/05/05 04:01:59;;;;;;;;;1.00;1.00;;;;;21.79;43.19;101612.14;110033;1266;18749;-41
2023/05/05 04:04:26;;;;;;;;;1.00;1.00;;;;;21.79;43.25;101613.66;110035;1251;21960;-41
2023/05/05 04:06:53;;;;;;;;;1.00;1.00;;;;;21.80;43.29;101618.67;110048;1260;18505;-41
2023/05/05 04:09:21;;;;;;;;;1.00;1.00;;;;;21.80;43.24;101614.84;110038;1254;21226;-41
2023/05/05 04:11:48;;;;;;;;;1.00;1.00;;;;;21.79;43.12;101618.70;110010;1266;19345;-42
2023/05/05 04:14:15;;;;;;;;;1.00;1.00;;;;;21.79;43.12;101620.65;109920;1267;18513;-41
2023/05/05 04:16:43;;;;;;;;;1.00;1.00;;;;;21.79;43.08;101618.40;110020;1253;20108;-41
2023/05/05 04:19:11;;;;;;;;;1.00;1.00;;;;;21.78;43.19;101622.23;110039;1266;19373;-40
2023/05/05 04:21:39;;;;;;;;;1.00;1.00;;;;;21.78;43.23;101623.93;110003;1266;18366;-40
2023/05/05 04:24:06;;;;;;;;;1.00;1.00;;;;;21.78;43.19;101619.77;110014;1260;19883;-40
2023/05/05 04:26:33;;;;;;;;;1.00;1.00;;;;;21.77;43.27;101623.83;110027;1260;20922;-40
2023/05/05 04:29:01;;;;;;;;;1.00;1.00;;;;;21.78;43.20;101628.98;110028;1250;18440;-39
2023/05/05 04:31:29;;;;;;;;;1.00;1.00;;;;;21.78;43.23;101633.75;110017;1254;20315;-40
2023/05/05 04:33:56;;;;;;;;;1.00;1.00;;;;;21.78;43.33;101635.95;110054;1266;22212;-40
2023/05/05 04:36:24;;;;;;;;;1.00;1.00;;;;;21.77;43.32;101639.12;110032;1250;19724;-40
2023/05/05 04:38:51;;;;;;;;;1.00;1.00;;;;;21.77;43.19;101641.84;109932;1266;20050;-41
2023/05/05 04:41:18;;;;;;;;;1.00;1.00;;;;;21.77;43.26;101641.64;110061;1254;20615;-40
2023/05/05 04:43:46;;;;;;;;;1.00;1.00;;;;;21.77;43.34;101644.39;109961;1254;22619;-40
2023/05/05 04:46:13;;;;;;;;;1.00;1.00;;;;;21.78;43.19;101640.72;109973;1266;21698;-40
2023/05/05 04:48:40;;;;;;;;;1.00;1.00;;;;;21.79;43.11;101641.50;109989;1254;20930;-39
2023/05/05 04:51:08;;;;;;;;;1.00;1.00;;;;;21.83;43.28;101641.98;109905;1253;19663;-40
2023/05/05 04:53:35;;;;;;;;;1.00;1.00;;;;;21.84;43.68;101647.71;110038;1251;20202;-41
2023/05/05 04:56:02;;;;;;;;;1.00;1.00;;;;;21.84;43.80;101648.56;110044;1266;21114;-40
2023/05/05 04:58:30;;;;;;;;;1.00;1.00;;;;;21.85;43.94;101650.77;110018;1251;22772;-39
2023/05/05 05:00:57;;;;;;;;;1.00;1.00;;;;;21.88;43.91;101654.38;109939;1262;18602;-39
2023/05/05 05:03:24;;;;;;;;;1.00;1.00;;;;;21.86;44.25;101653.75;110137;1253;20803;-39
2023/05/05 05:05:52;;;;;;;;;1.00;1.00;;;;;21.86;44.34;101656.03;110209;1251;21960;-42
2023/05/05 05:08:19;;;;;;;;;1.00;1.00;;;;;21.86;44.48;101659.85;110200;1265;18505;-40
2023/05/05 05:10:46;;;;;;;;;1.00;1.00;;;;;21.85;44.44;101658.25;110198;1260;20643;-40
2023/05/05 05:13:14;;;;;;;;;1.00;1.00;;;;;21.85;44.30;101656.45;110246;1265;19104;-39
2023/05/05 05:15:41;;;;;;;;;1.00;1.00;;;;;21.85;44.35;101655.41;110227;1266;20608;-40
2023/05/05 05:18:08;;;;;;;;;1.00;1.00;;;;;21.85;44.51;101657.94;110291;1265;19327;-40
2023/05/05 05:20:36;;;;;;;;;1.00;1.00;;;;;21.85;44.44;101665.96;110256;1260;22679;-40
2023/05/05 05:23:03;;;;;;;;;1.00;1.00;;;;;21.84;44.56;101659.44;110272;1265;22784;-40
2023/05/05 05:25:30;;;;;;;;;1.00;1.00;;;;;21.84;44.42;101660.15;110256;1265;19320;-40
2023/05/05 05:27:58;;;;;;;;;2.00;2.00;;;;;21.86;44.35;101665.85;110201;1265;18295;-41
2023/05/05 05:30:25;;;;;;;;;4.00;2.00;;;;;21.82;44.25;101668.10;110187;1265;19738;-40
2023/05/05 05:32:52;;;;;;;;;4.50;4.50;;;;;21.77;43.52;101668.84;110246;1251;20788;-40
2023/05/05 05:35:20;;;;;;;;;5.00;5.00;;;;;21.69;42.81;101673.50;110216;1265;18505;-40
2023/05/05 05:37:48;;;;;;;;;9.00;7.50;;;;;21.56;42.26;101678.77;110194;1255;20240;-41
2023/05/05 05:40:16;;;;;;;;;10.00;10.00;;;;;21.41;41.98;101679.81;110153;1265;19326;-44
2023/05/05 05:42:43;;;;;;;;;8.00;7.00;;;;;21.29;41.57;101682.70;110177;1260;21713;-40
2023/05/05 05:45:10;;;;;;;;;10.00;7.50;;;;;21.20;41.15;101680.88;110166;1259;19953;-40
2023/05/05 05:47:38;;;;;;;;;9.00;8.00;;;;;21.09;40.56;101686.95;110161;1265;19416;-41
2023/05/05 05:50:05;;;;;;;;;7.00;7.00;;;;;20.98;40.51;101681.28;110160;1260;22555;-40
2023/05/05 05:52:34;;;;;;;;;13.33;10.67;;;;;21.05;40.10;101683.33;110123;1251;20135;-40
2023/05/05 05:55:02;;;;;;;;;7.00;7.00;;;;;21.04;40.05;101685.22;110224;1250;19241;-40
2023/05/05 05:57:29;;;;;;;;;10.33;8.00;;;;;20.96;39.98;101684.96;110273;1252;19954;-40
2023/05/05 05:59:57;;;;;;;;;10.00;8.00;;;;;21.00;39.62;101686.23;110239;1258;18674;-40
2023/05/05 06:02:25;;;;;;;;;9.00;8.00;;;;;20.92;39.49;101688.42;110169;1265;19543;-43
2023/05/05 06:04:52;;;;;;;;;9.00;8.00;;;;;20.87;39.51;101696.02;110186;1251;21281;-40
2023/05/05 06:07:20;;;;;;;;;7.00;7.00;;;;;20.90;39.46;101692.24;110188;1250;18606;-44
2023/05/05 06:09:47;;;;;;;;;8.00;8.00;;;;;20.94;39.26;101687.34;110197;1260;20696;-41
2023/05/05 06:12:14;;;;;;;;;7.50;7.50;;;;;20.91;39.08;101694.88;110169;1251;20743;-40
2023/05/05 06:14:42;;;;;;;;;8.00;5.00;;;;;20.92;39.15;101695.59;110211;1265;18573;-39
2023/05/05 06:17:09;;;;;;;;;14.00;10.00;;;;;20.91;39.03;101695.30;110190;1265;19330;-42
2023/05/05 06:19:38;;;;;;;;;14.00;8.00;;;;;20.77;39.15;101697.27;110199;1251;19644;-40
2023/05/05 06:22:06;;;;;;;;;10.50;9.00;;;;;20.76;38.91;101701.33;110210;1251;22308;-40
2023/05/05 06:24:33;;;;;;;;;9.67;8.00;;;;;20.69;39.09;101703.55;110118;1265;19326;-41
2023/05/05 06:27:01;;;;;;;;;10.00;8.00;;;;;20.75;38.82;101706.49;110074;1251;20038;-41
2023/05/05 06:29:28;;;;;;;;;8.50;7.50;;;;;20.77;38.76;101706.48;110145;1251;20250;-41
2023/05/05 06:31:55;;;;;;;;;7.50;7.00;;;;;20.71;38.86;101712.00;110120;1250;21185;-42
2023/05/05 06:34:23;;;;;;;;;8.00;8.00;;;;;20.75;38.71;101716.66;110235;1251;22222;-41
2023/05/05 06:36:50;;;;;;;;;9.33;8.00;;;;;20.76;38.73;101717.16;110266;1265;20032;-40
2023/05/05 06:39:17;;;;;;;;;8.00;8.00;;;;;20.72;38.79;101715.92;110183;1251;20862;-41
2023/05/05 06:41:45;;;;;;;;;9.00;8.67;;;;;20.47;38.78;101718.20;110176;1257;19587;-42
2023/05/05 06:44:12;;;;;;;;;15.00;13.00;;;;;20.53;38.97;101719.06;110225;1265;18565;-40
2023/05/05 06:46:39;;;;;;;;;16.00;14.00;;;;;20.60;38.82;101720.62;110250;1251;20742;-40
2023/05/05 06:49:07;;;;;;;;;13.50;13.00;;;;;20.57;38.87;101725.42;110265;1265;18581;-42
2023/05/05 06:51:34;;;;;;;;;8.00;8.00;;;;;20.52;38.81;101720.93;110167;1251;21308;-42
2023/05/05 06:54:02;;;;;;;;;13.00;11.00;;;;;20.56;38.73;101725.50;110208;1265;19525;-41
2023/05/05 06:56:29;;;;;;;;;11.00;10.00;;;;;20.57;38.94;101725.58;110207;1250;22289;-41
2023/05/05 06:58:56;;;;;;;;;9.67;7.67;;;;;20.54;38.60;101730.73;110205;1251;20120;-42
2023/05/05 07:01:24;;;;;;;;;9.00;9.00;;;;;20.51;38.81;101728.16;110177;1257;23040;-41
2023/05/05 07:03:52;;;;;;;;;16.00;11.00;;;;;20.44;39.01;101725.70;110199;1265;18394;-41
2023/05/05 07:06:19;;;;;;;;;10.00;10.00;;;;;20.40;38.85;101728.17;110223;1250;21687;-41
2023/05/05 07:08:46;;;;;;;;;11.00;10.00;;;;;20.38;38.97;101721.91;110180;1265;19176;-41
2023/05/05 07:11:14;;;;;;;;;10.50;8.50;;;;;20.43;38.90;101725.31;110222;1257;20409;-41
2023/05/05 07:13:41;;;;;;;;;10.50;9.50;;;;;20.39;38.79;101728.05;110147;1265;18613;-41
2023/05/05 07:16:09;;;;;;;;;11.33;10.00;;;;;20.40;38.91;101727.08;110202;1260;20823;-41
2023/05/05 07:18:36;;;;;;;;;12.50;10.00;;;;;20.25;38.89;101725.42;110243;1265;22149;-42
2023/05/05 07:21:05;;;;;;;;;10.00;10.00;;;;;20.25;39.05;101727.23;110200;1266;22862;-41
2023/05/05 07:23:33;;;;;;;;;10.00;10.00;;;;;20.24;39.20;101733.83;110183;1265;19273;-41
2023/05/05 07:26:00;;;;;;;;;10.00;9.00;;;;;20.26;39.00;101731.49;110179;1251;20122;-41
2023/05/05 07:28:27;;;;;;;;;11.00;10.00;;;;;20.20;39.10;101733.38;110246;1251;20094;-41
2023/05/05 07:30:55;;;;;;;;;13.00;12.00;;;;;20.19;39.12;101740.89;110201;1251;20742;-41
2023/05/05 07:33:22;;;;;;;;;11.00;11.00;;;;;20.18;39.22;101738.63;110295;1260;20169;-41
2023/05/05 07:35:49;;;;;;;;;13.00;12.00;;;;;20.21;39.20;101743.04;110259;1265;18572;-41
2023/05/05 07:38:17;;;;;;;;;12.50;12.50;;;;;20.18;39.17;101748.44;110265;1251;20746;-42
2023/05/05 07:40:44;;;;;;;;;12.00;10.00;;;;;20.13;39.39;101753.29;110249;1250;20069;-41
2023/05/05 07:43:11;;;;;;;;;19.00;16.00;;;;;20.10;39.10;101751.78;110234;1260;20357;-41
2023/05/05 07:45:39;;;;;;;;;16.00;15.00;;;;;20.13;39.23;101750.36;110248;1265;19396;-41
2023/05/05 07:48:06;;;;;;;;;12.50;12.00;;;;;20.07;39.17;101748.10;110276;1251;19978;-39
2023/05/05 07:50:34;;;;;;;;;12.00;10.00;;;;;20.11;39.32;101746.09;110275;1251;20164;-39
2023/05/05 07:53:01;;;;;;;;;12.00;10.00;;;;;20.08;39.34;101746.67;110215;1265;19347;-38
2023/05/05 07:55:29;;;;;;;;;10.00;9.67;;;;;20.16;39.34;101748.11;110253;1251;20045;-39
2023/05/05 07:57:56;;;;;;;;;10.00;9.00;;;;;20.35;39.27;101742.98;110220;1265;18683;-40
2023/05/05 08:00:24;;;;;;;;;10.00;9.00;;;;;20.51;39.26;101743.92;110149;1251;20791;-42
2023/05/05 08:02:52;;;;;;;;;8.00;7.00;;;;;20.62;39.54;101743.77;110133;1251;20027;-41
2023/05/05 08:05:19;;;;;;;;;11.00;10.00;;;;;20.71;39.56;101743.94;110164;1265;19970;-41
2023/05/05 08:07:46;;;;;;;;;8.00;8.00;;;;;20.78;39.69;101745.11;110240;1250;20749;-42
2023/05/05 08:10:14;;;;;;;;;6.00;6.00;;;;;20.84;39.88;101749.98;110242;1250;19974;-41
2023/05/05 08:12:41;;;;;;;;;8.00;7.00;;;;;20.89;40.08;101756.67;110281;1251;18806;-42
2023/05/05 08:15:08;;;;;;;;;7.00;7.00;;;;;20.94;40.19;101754.21;110196;1251;20811;-41
2023/05/05 08:17:36;;;;;;;;;5.00;5.00;;;;;20.98;40.34;101757.05;110166;1259;20147;-41
2023/05/05 08:20:03;;;;;;;;;5.00;4.50;;;;;21.02;40.46;101756.48;110176;1265;19992;-41
2023/05/05 08:22:30;;;;;;;;;7.00;4.50;;;;;21.06;40.64;101756.05;110206;1251;20672;-43
2023/05/05 08:24:58;;;;;;;;;5.00;5.00;;;;;21.10;41.10;101762.99;110209;1260;20249;-44
2023/05/05 08:27:25;;;;;;;;;6.33;5.00;;;;;21.11;41.42;101762.27;110192;1251;20099;-42
2023/05/05 08:29:52;;;;;;;;;5.00;5.00;;;;;21.14;41.35;101761.78;110208;1251;20959;-43
2023/05/05 08:32:20;;;;;;;;;5.00;5.00;;;;;21.16;41.69;101761.25;110244;1266;18390;-42
2023/05/05 08:34:47;;;;;;;;;5.00;5.00;;;;;21.16;41.76;101757.41;110252;1251;20007;-42
2023/05/05 08:37:15;;;;;;;;;5.00;5.00;;;;;21.18;41.88;101759.98;110272;1265;22671;-43
2023/05/05 08:39:43;;;;;;;;;4.00;4.00;;;;;21.20;42.32;101759.63;110268;1260;19543;-41
2023/05/05 08:42:10;;;;;;;;;3.00;3.00;;;;;21.19;42.04;101761.67;110177;1265;18732;-41
2023/05/05 08:44:37;;;;;;;;;4.50;4.00;;;;;21.19;42.32;101767.47;110207;1251;20854;-41
2023/05/05 08:47:05;;;;;;;;;4.00;2.00;;;;;21.21;42.21;101769.69;110178;1251;19662;-42
2023/05/05 08:49:33;;;;;;;;;2.00;2.00;;;;;21.23;42.40;101772.17;110161;1265;18499;-40
2023/05/05 08:52:00;;;;;;;;;4.00;4.00;;;;;21.25;42.41;101771.77;110243;1251;20783;-40
2023/05/05 08:54:28;;;;;;;;;4.00;4.00;;;;;21.26;42.53;101770.73;110252;1251;18509;-41
2023/05/05 08:56:55;;;;;;;;;5.00;4.00;;;;;21.28;42.66;101770.95;110197;1257;22709;-41
2023/05/05 08:59:24;;;;;;;;;4.00;4.00;;;;;21.29;42.57;101768.52;110236;1251;20832;-42
2023/05/05 09:01:51;;;;;;;;;3.00;2.00;;;;;21.29;42.85;101769.23;110173;1251;20375;-41
2023/05/05 09:04:18;;;;;;;;;4.00;4.00;;;;;21.29;42.79;101769.60;110163;1249;20031;-41
2023/05/05 09:06:46;;;;;;;;;5.00;4.00;;;;;21.30;42.74;101775.48;110155;1265;20938;-41
2023/05/05 09:09:13;;;;;;;;;5.00;4.00;;;;;21.30;42.72;101781.86;110205;1265;18440;-39
2023/05/05 09:11:41;;;;;;;;;5.00;4.00;;;;;21.33;42.66;101779.52;110223;1266;18650;-43
2023/05/05 09:14:08;;;;;;;;;2.00;2.00;;;;;21.43;42.96;101778.73;110252;1251;21998;-40
2023/05/05 09:16:35;;;;;;;;;4.00;4.00;;;;;21.45;43.12;101782.29;110203;1251;19642;-45
2023/05/05 09:19:03;;;;;;;;;4.00;4.00;;;;;21.48;43.64;101789.89;110201;1265;18680;-41
2023/05/05 09:21:31;;;;;;;;;5.00;5.00;;;;;21.46;43.67;101785.27;110255;1265;19346;-42
2023/05/05 09:23:58;;;;;;;;;5.00;5.00;;;;;21.32;43.39;101781.98;110229;1265;22665;-42
2023/05/05 09:26:25;;;;;;;;;10.00;8.00;;;;;21.25;42.89;101785.10;110221;1265;18634;-42
2023/05/05 09:28:53;;;;;;;;;8.00;8.00;;;;;21.07;42.23;101781.77;110192;1265;20714;-40
2023/05/05 09:31:20;;;;;;;;;7.00;5.00;;;;;20.95;42.02;101781.71;110240;1265;19842;-44
2023/05/05 09:33:47;;;;;;;;;9.00;8.00;;;;;20.83;41.48;101788.76;110210;1265;18576;-42
2023/05/05 09:36:15;;;;;;;;;8.00;7.00;;;;;20.81;41.41;101787.35;110250;1265;19217;-43
2023/05/05 09:38:42;;;;;;;;;8.00;7.50;;;;;20.96;41.71;101785.23;110132;1261;18393;-43
2023/05/05 09:41:09;;;;;;;;;8.00;7.00;;;;;21.14;41.86;101788.37;110202;1251;21324;-41
2023/05/05 09:43:37;;;;;;;;;7.00;7.00;;;;;21.25;41.85;101789.04;110240;1266;20879;-43
2023/05/05 09:46:04;;;;;;;;;5.00;5.00;;;;;21.33;42.07;101786.84;110221;1252;19629;-41
2023/05/05 09:48:31;;;;;;;;;5.00;5.00;;;;;21.39;42.19;101789.81;110198;1265;23430;-41
2023/05/05 09:50:59;;;;;;;;;7.00;7.00;;;;;21.41;42.22;101793.51;110158;1266;19318;-41
2023/05/05 09:53:26;;;;;;;;;5.00;5.00;;;;;21.30;42.28;101793.13;110193;1251;19603;-39
2023/05/05 09:55:54;;;;;;;;;7.00;7.00;;;;;21.35;42.63;101795.91;110228;1265;18701;-40
2023/05/05 09:58:22;;;;;;;;;5.00;5.00;;;;;21.42;42.53;101801.19;110229;1249;22002;-41
2023/05/05 10:00:49;;;;;;;;;7.00;7.00;;;;;21.40;42.42;101804.11;110242;1251;19590;-41
2023/05/05 10:03:17;;;;;;;;;4.00;4.00;;;;;21.40;42.64;101800.33;110266;1251;19976;-41
2023/05/05 10:05:44;;;;;;;;;8.00;7.00;;;;;21.40;42.72;101797.91;110259;1265;19324;-43
2023/05/05 10:08:12;;;;;;;;;5.00;4.00;;;;;21.40;43.03;101796.68;110220;1265;22305;-40
2023/05/05 10:10:39;;;;;;;;;4.00;4.00;;;;;21.39;43.45;101795.50;110245;1251;21841;-41
2023/05/05 10:13:07;;;;;;;;;10.00;8.00;;;;;21.36;43.48;101797.96;110244;1251;21761;-42
2023/05/05 10:15:34;;;;;;;;;8.00;8.00;;;;;21.25;42.89;101796.37;110247;1257;21118;-40
2023/05/05 10:18:01;;;;;;;;;7.00;7.00;;;;;21.11;42.37;101798.08;110227;1260;20078;-43
2023/05/05 10:20:29;;;;;;;;;11.00;10.00;;;;;21.02;42.20;101796.11;110232;1249;19349;-40
2023/05/05 10:22:56;;;;;;;;;8.00;8.00;;;;;20.96;41.77;101796.88;110266;1251;22175;-40
2023/05/05 10:25:23;;;;;;;;;10.00;8.00;;;;;20.89;41.40;101797.59;110283;1265;18642;-41
2023/05/05 10:27:51;;;;;;;;;8.00;7.33;;;;;20.82;41.26;101794.65;110231;1265;19351;-40
2023/05/05 10:30:18;;;;;;;;;18.00;11.00;;;;;20.79;40.97;101796.55;110238;1265;18876;-41
2023/05/05 10:32:45;;;;;;;;;10.00;9.00;;;;;20.72;40.85;101792.89;110255;1251;20109;-41
2023/05/05 10:35:13;;;;;;;;;10.00;8.00;;;;;20.74;40.62;101794.36;110272;1265;19322;-42
2023/05/05 10:37:40;;;;;;;;;10.50;8.00;;;;;20.72;40.54;101797.31;110234;1265;18704;-41
2023/05/05 10:40:07;;;;;;;;;8.00;8.00;;;;;20.58;40.50;101792.52;110181;1251;20073;-41
2023/05/05 10:42:35;;;;;;;;;12.00;9.00;;;;;20.61;40.39;101793.80;110173;1259;20661;-41
2023/05/05 10:45:02;;;;;;;;;9.50;9.50;;;;;20.61;40.45;101785.31;110268;1265;18437;-41
2023/05/05 10:47:29;;;;;;;;;7.00;7.00;;;;;20.61;40.22;101790.40;110283;1261;19977;-41
2023/05/05 10:49:57;;;;;;;;;14.00;10.00;;;;;20.55;40.08;101790.61;110269;1265;19211;-42
2023/05/05 10:52:24;;;;;;;;;10.00;10.00;;;;;20.57;40.18;101788.80;110267;1260;19632;-41
2023/05/05 10:54:51;;;;;;;;;10.00;10.00;;;;;20.60;40.11;101790.14;110230;1251;20156;-41
2023/05/05 10:57:19;;;;;;;;;7.00;7.00;;;;;20.60;40.22;101784.31;110257;1251;22027;-41
2023/05/05 10:59:46;;;;;;;;;11.00;10.00;;;;;20.65;40.20;101785.85;110284;1257;20055;-42
2023/05/05 11:02:13;;;;;;;;;8.00;8.00;;;;;20.67;40.03;101778.66;110231;1251;20170;-41
2023/05/05 11:04:40;;;;;;;;;7.00;7.00;;;;;20.65;40.00;101780.95;110265;1265;20860;-41
2023/05/05 11:07:08;;;;;;;;;10.00;8.00;;;;;20.67;40.22;101777.56;110233;1250;22122;-41
2023/05/05 11:09:37;;;;;;;;;11.00;10.00;;;;;20.63;40.11;101776.97;110240;1259;20015;-42
2023/05/05 11:12:05;;;;;;;;;10.00;8.50;;;;;20.46;40.13;101778.95;110182;1250;19334;-43
2023/05/05 11:14:32;;;;;;;;;10.00;9.67;;;;;20.43;40.08;101775.02;110236;1251;20002;-41